sensor_id;sensor_type;location;lat;lon;timestamp;P1;durP1;ratioP1;P2;durP2;ratioP2
20421;SDS011;10370;53.102;18.034;2023-03-31T00:05:24;24.45;;;13.88;;
20421;SDS011;10370;53.102;18.034;2023-03-31T00:10:49;25.65;;;14.45;;
20421;SDS011;10370;53.102;18.034;2023-03-31T00:16:15;25.05;;;13.77;;
20421;SDS011;10370;53.102;18.034;2023-03-31T00:21:41;26.83;;;14.82;;
20421;SDS011;10370;53.102;18.034;2023-03-31T00:27:04;28.30;;;15.15;;
20421;SDS011;10370;53.102;18.034;2023-03-31T00:32:32;31.58;;;15.05;;
20421;SDS011;10370;53.102;18.034;2023-03-31T00:37:55;33.08;;;16.92;;
20421;SDS011;10370;53.102;18.034;2023-03-31T00:43:37;34.55;;;17.60;;
20421;SDS011;10370;53.102;18.034;2023-03-31T00:49:03;35.47;;;16.90;;
20421;SDS011;10370;53.102;18.034;2023-03-31T00:54:35;32.72;;;17.27;;
20421;SDS011;10370;53.102;18.034;2023-03-31T01:00:02;38.03;;;18.60;;
20421;SDS011;10370;53.102;18.034;2023-03-31T01:05:41;41.40;;;18.25;;
20421;SDS011;10370;53.102;18.034;2023-03-31T01:11:09;35.78;;;18.75;;
20421;SDS011;10370;53.102;18.034;2023-03-31T01:16:35;34.28;;;18.90;;
20421;SDS011;10370;53.102;18.034;2023-03-31T01:22:12;38.03;;;18.77;;
20421;SDS011;10370;53.102;18.034;2023-03-31T01:50:57;25.25;;;15.48;;
20421;SDS011;10370;53.102;18.034;2023-03-31T01:56:30;28.58;;;14.38;;
20421;SDS011;10370;53.102;18.034;2023-03-31T02:07:39;26.42;;;13.73;;
20421;SDS011;10370;53.102;18.034;2023-03-31T02:13:13;22.33;;;12.05;;
20421;SDS011;10370;53.102;18.034;2023-03-31T02:18:40;23.10;;;12.35;;
20421;SDS011;10370;53.102;18.034;2023-03-31T02:24:06;24.80;;;11.75;;
20421;SDS011;10370;53.102;18.034;2023-03-31T02:29:34;20.27;;;10.43;;
20421;SDS011;10370;53.102;18.034;2023-03-31T02:35:00;17.88;;;9.63;;
20421;SDS011;10370;53.102;18.034;2023-03-31T02:40:26;17.92;;;9.43;;
20421;SDS011;10370;53.102;18.034;2023-03-31T02:45:49;18.80;;;7.85;;
20421;SDS011;10370;53.102;18.034;2023-03-31T02:51:28;16.00;;;7.22;;
20421;SDS011;10370;53.102;18.034;2023-03-31T03:19:57;16.80;;;6.75;;
20421;SDS011;10370;53.102;18.034;2023-03-31T03:25:22;16.58;;;7.00;;
20421;SDS011;10370;53.102;18.034;2023-03-31T03:30:47;15.90;;;7.60;;
20421;SDS011;10370;53.102;18.034;2023-03-31T03:36:09;12.93;;;7.15;;
20421;SDS011;10370;53.102;18.034;2023-03-31T03:41:34;12.18;;;7.00;;
20421;SDS011;10370;53.102;18.034;2023-03-31T03:46:59;16.13;;;7.18;;
20421;SDS011;10370;53.102;18.034;2023-03-31T03:52:25;13.32;;;6.93;;
20421;SDS011;10370;53.102;18.034;2023-03-31T03:57:49;15.68;;;7.90;;
20421;SDS011;10370;53.102;18.034;2023-03-31T04:03:15;14.07;;;7.53;;
20421;SDS011;10370;53.102;18.034;2023-03-31T04:08:39;15.95;;;8.20;;
20421;SDS011;10370;53.102;18.034;2023-03-31T04:14:02;13.52;;;7.05;;
20421;SDS011;10370;53.102;18.034;2023-03-31T04:19:27;14.93;;;7.85;;
20421;SDS011;10370;53.102;18.034;2023-03-31T04:24:53;17.40;;;8.23;;
20421;SDS011;10370;53.102;18.034;2023-03-31T04:30:18;17.85;;;8.82;;
20421;SDS011;10370;53.102;18.034;2023-03-31T04:35:44;19.50;;;10.02;;
20421;SDS011;10370;53.102;18.034;2023-03-31T04:41:10;15.43;;;8.35;;
20421;SDS011;10370;53.102;18.034;2023-03-31T04:46:39;19.67;;;8.50;;
20421;SDS011;10370;53.102;18.034;2023-03-31T04:52:04;17.05;;;9.52;;
20421;SDS011;10370;53.102;18.034;2023-03-31T04:57:29;16.58;;;9.32;;
20421;SDS011;10370;53.102;18.034;2023-03-31T05:02:50;18.65;;;9.60;;
20421;SDS011;10370;53.102;18.034;2023-03-31T05:08:11;16.88;;;9.23;;
20421;SDS011;10370;53.102;18.034;2023-03-31T05:13:35;16.60;;;9.60;;
20421;SDS011;10370;53.102;18.034;2023-03-31T05:18:59;19.20;;;9.02;;
20421;SDS011;10370;53.102;18.034;2023-03-31T05:24:20;19.92;;;9.40;;
20421;SDS011;10370;53.102;18.034;2023-03-31T05:29:42;21.20;;;9.95;;
20421;SDS011;10370;53.102;18.034;2023-03-31T05:35:05;18.02;;;9.75;;
20421;SDS011;10370;53.102;18.034;2023-03-31T05:40:31;17.58;;;8.75;;
20421;SDS011;10370;53.102;18.034;2023-03-31T05:45:54;16.50;;;9.20;;
20421;SDS011;10370;53.102;18.034;2023-03-31T05:51:17;21.90;;;9.57;;
20421;SDS011;10370;53.102;18.034;2023-03-31T05:56:42;17.38;;;8.60;;
20421;SDS011;10370;53.102;18.034;2023-03-31T06:02:03;18.67;;;9.20;;
20421;SDS011;10370;53.102;18.034;2023-03-31T06:07:25;14.93;;;8.13;;
20421;SDS011;10370;53.102;18.034;2023-03-31T06:12:48;16.63;;;8.38;;
20421;SDS011;10370;53.102;18.034;2023-03-31T06:18:13;19.38;;;7.90;;
20421;SDS011;10370;53.102;18.034;2023-03-31T06:23:38;17.48;;;7.97;;
20421;SDS011;10370;53.102;18.034;2023-03-31T06:29:00;15.80;;;7.80;;
20421;SDS011;10370;53.102;18.034;2023-03-31T06:34:21;14.02;;;6.85;;
20421;SDS011;10370;53.102;18.034;2023-03-31T06:39:43;11.85;;;7.10;;
20421;SDS011;10370;53.102;18.034;2023-03-31T06:45:06;13.77;;;7.15;;
20421;SDS011;10370;53.102;18.034;2023-03-31T06:50:31;11.75;;;7.00;;
20421;SDS011;10370;53.102;18.034;2023-03-31T06:55:56;16.25;;;7.07;;
20421;SDS011;10370;53.102;18.034;2023-03-31T07:01:18;15.15;;;7.18;;
20421;SDS011;10370;53.102;18.034;2023-03-31T07:06:39;14.25;;;6.40;;
20421;SDS011;10370;53.102;18.034;2023-03-31T07:12:00;11.20;;;5.95;;
20421;SDS011;10370;53.102;18.034;2023-03-31T07:17:26;12.93;;;6.18;;
20421;SDS011;10370;53.102;18.034;2023-03-31T07:22:51;11.75;;;5.47;;
20421;SDS011;10370;53.102;18.034;2023-03-31T07:28:15;10.38;;;5.85;;
20421;SDS011;10370;53.102;18.034;2023-03-31T07:33:36;14.13;;;5.63;;
20421;SDS011;10370;53.102;18.034;2023-03-31T07:39:00;15.38;;;5.90;;
20421;SDS011;10370;53.102;18.034;2023-03-31T07:44:25;13.65;;;5.50;;
20421;SDS011;10370;53.102;18.034;2023-03-31T07:49:46;12.63;;;5.32;;
20421;SDS011;10370;53.102;18.034;2023-03-31T07:55:12;12.07;;;5.55;;
20421;SDS011;10370;53.102;18.034;2023-03-31T08:00:37;13.15;;;5.72;;
20421;SDS011;10370;53.102;18.034;2023-03-31T08:06:07;15.80;;;5.88;;
20421;SDS011;10370;53.102;18.034;2023-03-31T08:11:30;12.10;;;6.05;;
20421;SDS011;10370;53.102;18.034;2023-03-31T08:16:58;11.27;;;6.00;;
20421;SDS011;10370;53.102;18.034;2023-03-31T08:22:22;12.85;;;5.80;;
20421;SDS011;10370;53.102;18.034;2023-03-31T08:27:43;11.43;;;5.85;;
20421;SDS011;10370;53.102;18.034;2023-03-31T08:33:06;16.45;;;5.78;;
20421;SDS011;10370;53.102;18.034;2023-03-31T08:38:28;15.05;;;5.35;;
20421;SDS011;10370;53.102;18.034;2023-03-31T08:43:51;12.40;;;6.57;;
20421;SDS011;10370;53.102;18.034;2023-03-31T08:49:15;15.75;;;6.50;;
20421;SDS011;10370;53.102;18.034;2023-03-31T08:54:45;11.73;;;6.45;;
20421;SDS011;10370;53.102;18.034;2023-03-31T09:00:14;10.13;;;6.57;;
20421;SDS011;10370;53.102;18.034;2023-03-31T09:22:17;15.32;;;7.47;;
20421;SDS011;10370;53.102;18.034;2023-03-31T09:27:45;18.17;;;8.23;;
20421;SDS011;10370;53.102;18.034;2023-03-31T09:33:14;14.07;;;8.07;;
20421;SDS011;10370;53.102;18.034;2023-03-31T09:38:49;16.63;;;8.55;;
20421;SDS011;10370;53.102;18.034;2023-03-31T09:44:26;12.70;;;7.75;;
20421;SDS011;10370;53.102;18.034;2023-03-31T09:50:11;15.95;;;7.72;;
20421;SDS011;10370;53.102;18.034;2023-03-31T09:55:46;16.55;;;8.10;;
20421;SDS011;10370;53.102;18.034;2023-03-31T10:01:17;18.65;;;9.25;;
20421;SDS011;10370;53.102;18.034;2023-03-31T10:06:41;15.05;;;8.38;;
20421;SDS011;10370;53.102;18.034;2023-03-31T10:12:16;15.63;;;8.07;;
20421;SDS011;10370;53.102;18.034;2023-03-31T10:17:45;18.45;;;8.68;;
20421;SDS011;10370;53.102;18.034;2023-03-31T10:28:39;16.85;;;7.88;;
20421;SDS011;10370;53.102;18.034;2023-03-31T10:34:08;13.88;;;7.90;;
20421;SDS011;10370;53.102;18.034;2023-03-31T10:39:34;14.45;;;7.80;;
20421;SDS011;10370;53.102;18.034;2023-03-31T10:45:12;14.07;;;7.65;;
20421;SDS011;10370;53.102;18.034;2023-03-31T10:50:57;22.92;;;9.18;;
20421;SDS011;10370;53.102;18.034;2023-03-31T11:02:05;15.15;;;7.68;;
20421;SDS011;10370;53.102;18.034;2023-03-31T11:25:08;13.98;;;5.97;;
20421;SDS011;10370;53.102;18.034;2023-03-31T11:36:15;17.60;;;5.57;;
20421;SDS011;10370;53.102;18.034;2023-03-31T11:42:01;32.50;;;12.15;;
20421;SDS011;10370;53.102;18.034;2023-03-31T11:47:35;28.88;;;11.27;;
20421;SDS011;10370;53.102;18.034;2023-03-31T11:53:02;14.45;;;6.53;;
20421;SDS011;10370;53.102;18.034;2023-03-31T11:58:40;11.70;;;5.53;;
20421;SDS011;10370;53.102;18.034;2023-03-31T12:10:32;13.20;;;5.20;;
20421;SDS011;10370;53.102;18.034;2023-03-31T12:15:43;10.68;;;4.85;;
20421;SDS011;10370;53.102;18.034;2023-03-31T12:21:13;12.15;;;5.63;;
20421;SDS011;10370;53.102;18.034;2023-03-31T12:32:52;14.55;;;5.13;;
20421;SDS011;10370;53.102;18.034;2023-03-31T12:55:35;16.85;;;8.07;;
20421;SDS011;10370;53.102;18.034;2023-03-31T13:12:07;13.73;;;7.32;;
20421;SDS011;10370;53.102;18.034;2023-03-31T13:17:37;16.80;;;9.38;;
20421;SDS011;10370;53.102;18.034;2023-03-31T13:28:42;21.35;;;10.75;;
20421;SDS011;10370;53.102;18.034;2023-03-31T13:34:05;15.98;;;9.25;;
20421;SDS011;10370;53.102;18.034;2023-03-31T13:39:35;14.43;;;6.70;;
20421;SDS011;10370;53.102;18.034;2023-03-31T13:45:37;13.40;;;6.80;;
20421;SDS011;10370;53.102;18.034;2023-03-31T14:09:07;9.68;;;5.70;;
20421;SDS011;10370;53.102;18.034;2023-03-31T14:14:31;12.77;;;5.50;;
20421;SDS011;10370;53.102;18.034;2023-03-31T14:25:58;15.60;;;6.07;;
20421;SDS011;10370;53.102;18.034;2023-03-31T14:31:23;10.98;;;5.60;;
20421;SDS011;10370;53.102;18.034;2023-03-31T14:36:58;14.48;;;6.13;;
20421;SDS011;10370;53.102;18.034;2023-03-31T14:42:25;11.35;;;5.72;;
20421;SDS011;10370;53.102;18.034;2023-03-31T14:59:24;15.50;;;7.15;;
20421;SDS011;10370;53.102;18.034;2023-03-31T15:04:52;12.50;;;6.95;;
20421;SDS011;10370;53.102;18.034;2023-03-31T15:10:19;12.82;;;7.65;;
20421;SDS011;10370;53.102;18.034;2023-03-31T15:15:44;15.15;;;7.45;;
20421;SDS011;10370;53.102;18.034;2023-03-31T15:21:17;14.43;;;7.65;;
20421;SDS011;10370;53.102;18.034;2023-03-31T15:32:39;18.65;;;8.43;;
20421;SDS011;10370;53.102;18.034;2023-03-31T15:38:04;13.75;;;8.40;;
20421;SDS011;10370;53.102;18.034;2023-03-31T15:49:26;16.80;;;8.32;;
20421;SDS011;10370;53.102;18.034;2023-03-31T15:54:52;18.13;;;9.65;;
20421;SDS011;10370;53.102;18.034;2023-03-31T16:05:59;14.23;;;8.07;;
20421;SDS011;10370;53.102;18.034;2023-03-31T16:12:00;20.45;;;9.05;;
20421;SDS011;10370;53.102;18.034;2023-03-31T16:45:09;16.92;;;9.23;;
20421;SDS011;10370;53.102;18.034;2023-03-31T16:50:34;18.10;;;9.57;;
20421;SDS011;10370;53.102;18.034;2023-03-31T16:56:02;21.95;;;9.25;;
20421;SDS011;10370;53.102;18.034;2023-03-31T17:01:31;13.90;;;8.88;;
20421;SDS011;10370;53.102;18.034;2023-03-31T17:06:55;19.17;;;9.05;;
20421;SDS011;10370;53.102;18.034;2023-03-31T17:12:20;15.52;;;9.25;;
20421;SDS011;10370;53.102;18.034;2023-03-31T17:17:45;17.05;;;8.52;;
20421;SDS011;10370;53.102;18.034;2023-03-31T17:23:11;15.43;;;9.10;;
20421;SDS011;10370;53.102;18.034;2023-03-31T17:28:37;18.92;;;9.35;;
20421;SDS011;10370;53.102;18.034;2023-03-31T17:34:01;15.38;;;8.75;;
20421;SDS011;10370;53.102;18.034;2023-03-31T17:39:27;16.50;;;8.10;;
20421;SDS011;10370;53.102;18.034;2023-03-31T17:44:52;14.60;;;8.10;;
20421;SDS011;10370;53.102;18.034;2023-03-31T17:50:20;46.42;;;21.08;;
20421;SDS011;10370;53.102;18.034;2023-03-31T17:55:46;21.85;;;10.68;;
20421;SDS011;10370;53.102;18.034;2023-03-31T18:01:10;99.45;;;41.50;;
20421;SDS011;10370;53.102;18.034;2023-03-31T18:06:33;12.02;;;6.63;;
20421;SDS011;10370;53.102;18.034;2023-03-31T18:11:56;9.43;;;5.68;;
20421;SDS011;10370;53.102;18.034;2023-03-31T18:17:20;11.43;;;5.45;;
20421;SDS011;10370;53.102;18.034;2023-03-31T18:22:46;8.65;;;4.88;;
20421;SDS011;10370;53.102;18.034;2023-03-31T18:28:11;11.95;;;5.70;;
20421;SDS011;10370;53.102;18.034;2023-03-31T18:33:37;20.65;;;14.95;;
20421;SDS011;10370;53.102;18.034;2023-03-31T18:39:00;11.13;;;5.93;;
20421;SDS011;10370;53.102;18.034;2023-03-31T18:44:22;17.08;;;6.72;;
20421;SDS011;10370;53.102;18.034;2023-03-31T18:49:47;117.90;;;44.97;;
20421;SDS011;10370;53.102;18.034;2023-03-31T18:55:17;59.53;;;32.13;;
20421;SDS011;10370;53.102;18.034;2023-03-31T19:00:40;56.08;;;27.13;;
20421;SDS011;10370;53.102;18.034;2023-03-31T19:06:07;79.15;;;40.05;;
20421;SDS011;10370;53.102;18.034;2023-03-31T19:11:30;45.70;;;22.98;;
20421;SDS011;10370;53.102;18.034;2023-03-31T19:16:51;14.98;;;7.85;;
20421;SDS011;10370;53.102;18.034;2023-03-31T19:22:13;10.52;;;6.28;;
20421;SDS011;10370;53.102;18.034;2023-03-31T19:27:36;15.75;;;7.10;;
20421;SDS011;10370;53.102;18.034;2023-03-31T19:33:00;20.60;;;8.85;;
20421;SDS011;10370;53.102;18.034;2023-03-31T19:38:24;20.98;;;9.27;;
20421;SDS011;10370;53.102;18.034;2023-03-31T19:43:51;43.42;;;20.70;;
20421;SDS011;10370;53.102;18.034;2023-03-31T19:49:13;33.22;;;16.58;;
20421;SDS011;10370;53.102;18.034;2023-03-31T19:54:36;32.92;;;15.98;;
20421;SDS011;10370;53.102;18.034;2023-03-31T19:59:57;30.60;;;14.52;;
20421;SDS011;10370;53.102;18.034;2023-03-31T20:05:25;44.38;;;19.40;;
20421;SDS011;10370;53.102;18.034;2023-03-31T20:10:46;51.40;;;21.75;;
20421;SDS011;10370;53.102;18.034;2023-03-31T20:16:12;51.05;;;22.77;;
20421;SDS011;10370;53.102;18.034;2023-03-31T20:21:39;51.85;;;23.60;;
20421;SDS011;10370;53.102;18.034;2023-03-31T20:27:06;37.67;;;18.02;;
20421;SDS011;10370;53.102;18.034;2023-03-31T20:32:31;38.13;;;20.88;;
20421;SDS011;10370;53.102;18.034;2023-03-31T20:37:52;69.80;;;31.35;;
20421;SDS011;10370;53.102;18.034;2023-03-31T20:43:14;74.53;;;32.28;;
20421;SDS011;10370;53.102;18.034;2023-03-31T20:48:39;65.47;;;30.95;;
20421;SDS011;10370;53.102;18.034;2023-03-31T20:54:01;55.97;;;28.55;;
20421;SDS011;10370;53.102;18.034;2023-03-31T20:59:23;53.10;;;26.23;;
20421;SDS011;10370;53.102;18.034;2023-03-31T21:04:44;50.70;;;24.90;;
20421;SDS011;10370;53.102;18.034;2023-03-31T21:10:07;53.08;;;23.83;;
20421;SDS011;10370;53.102;18.034;2023-03-31T21:15:28;46.60;;;23.05;;
20421;SDS011;10370;53.102;18.034;2023-03-31T21:20:55;47.00;;;24.95;;
20421;SDS011;10370;53.102;18.034;2023-03-31T21:26:23;46.58;;;23.35;;
20421;SDS011;10370;53.102;18.034;2023-03-31T21:31:48;49.80;;;24.05;;
20421;SDS011;10370;53.102;18.034;2023-03-31T21:37:14;55.78;;;25.27;;
20421;SDS011;10370;53.102;18.034;2023-03-31T21:42:40;41.78;;;20.77;;
20421;SDS011;10370;53.102;18.034;2023-03-31T21:48:07;50.08;;;24.08;;
20421;SDS011;10370;53.102;18.034;2023-03-31T21:53:32;54.83;;;29.17;;
20421;SDS011;10370;53.102;18.034;2023-03-31T21:58:57;52.63;;;26.33;;
20421;SDS011;10370;53.102;18.034;2023-03-31T22:04:23;40.67;;;19.38;;
20421;SDS011;10370;53.102;18.034;2023-03-31T22:09:50;38.47;;;18.33;;
20421;SDS011;10370;53.102;18.034;2023-03-31T22:15:15;42.15;;;18.92;;
20421;SDS011;10370;53.102;18.034;2023-03-31T22:20:43;38.28;;;18.85;;
20421;SDS011;10370;53.102;18.034;2023-03-31T22:26:07;44.22;;;20.90;;
20421;SDS011;10370;53.102;18.034;2023-03-31T22:31:32;102.63;;;41.85;;
20421;SDS011;10370;53.102;18.034;2023-03-31T22:37:00;54.40;;;24.23;;
20421;SDS011;10370;53.102;18.034;2023-03-31T22:42:23;42.08;;;21.58;;
20421;SDS011;10370;53.102;18.034;2023-03-31T22:47:50;47.45;;;20.83;;
20421;SDS011;10370;53.102;18.034;2023-03-31T22:53:17;42.40;;;20.50;;
20421;SDS011;10370;53.102;18.034;2023-03-31T22:58:42;44.63;;;21.48;;
20421;SDS011;10370;53.102;18.034;2023-03-31T23:04:07;52.25;;;24.98;;
20421;SDS011;10370;53.102;18.034;2023-03-31T23:09:32;49.72;;;24.40;;
20421;SDS011;10370;53.102;18.034;2023-03-31T23:14:58;49.38;;;25.42;;
20421;SDS011;10370;53.102;18.034;2023-03-31T23:20:24;48.55;;;25.45;;
20421;SDS011;10370;53.102;18.034;2023-03-31T23:25:58;52.47;;;26.50;;
20421;SDS011;10370;53.102;18.034;2023-03-31T23:31:25;51.53;;;26.88;;
20421;SDS011;10370;53.102;18.034;2023-03-31T23:36:50;53.92;;;28.38;;
20421;SDS011;10370;53.102;18.034;2023-03-31T23:42:17;56.53;;;29.08;;
20421;SDS011;10370;53.102;18.034;2023-03-31T23:47:43;58.92;;;28.73;;
20421;SDS011;10370;53.102;18.034;2023-03-31T23:53:11;59.17;;;28.92;;
20421;SDS011;10370;53.102;18.034;2023-03-31T23:58:37;58.42;;;28.17;;
